Time;durP1;ratioP1;P1;durP2;ratioP2;P2;SDS_P1;SDS_P2;PMS_P1;PMS_P2;Temp;Humidity;BMP_temperature;BMP_pressure;BME280_temperature;BME280_humidity;BME280_pressure;Samples;Min_cycle;Max_cycle;Signal;HPM_P1;HPM_P2
2023/10/02 00:01:47;;;;;;;16.47;8.63;;;11.70;99.90;;;;;;5023415;28;20423;-59
2023/10/02 00:04:16;;;;;;;14.27;7.73;;;11.60;99.90;;;;;;5022983;28;20433;-59
2023/10/02 00:06:43;;;;;;;17.23;8.13;;;11.60;99.90;;;;;;5025516;28;20944;-59
2023/10/02 00:09:09;;;;;;;18.43;8.70;;;11.60;99.90;;;;;;5021054;28;20896;-59
2023/10/02 00:11:39;;;;;;;15.97;7.83;;;11.60;99.90;;;;;;5020833;28;20456;-59
2023/10/02 00:14:23;;;;;;;15.30;7.30;;;11.50;99.90;;;;;;5024164;28;20578;-59
2023/10/02 00:16:59;;;;;;;18.50;8.37;;;11.50;99.90;;;;;;5022476;28;20424;-59
2023/10/02 00:19:37;;;;;;;19.33;8.17;;;11.50;99.90;;;;;;5024329;28;20430;-59
2023/10/02 00:25:07;;;;;;;16.93;8.20;;;11.40;99.90;;;;;;5022142;28;20476;-59
2023/10/02 00:27:34;;;;;;;15.43;7.83;;;11.40;99.90;;;;;;5022859;28;20435;-59
2023/10/02 00:30:01;;;;;;;18.37;7.50;;;11.30;99.90;;;;;;5025362;28;20513;-59
2023/10/02 00:32:34;;;;;;;16.97;7.83;;;11.30;99.90;;;;;;5026499;28;21334;-59
2023/10/02 00:35:03;;;;;;;16.90;7.77;;;11.30;99.90;;;;;;5023002;28;20814;-59
2023/10/02 00:37:51;;;;;;;17.30;8.50;;;11.30;99.90;;;;;;5023108;28;20449;-58
2023/10/02 00:40:25;;;;;;;15.73;7.70;;;11.20;99.90;;;;;;5021578;28;20415;-58
2023/10/02 00:42:55;;;;;;;18.70;7.90;;;11.20;99.90;;;;;;5021890;28;20447;-59
2023/10/02 00:45:25;;;;;;;21.30;7.47;;;11.20;99.90;;;;;;5027387;28;20428;-57
2023/10/02 00:47:53;;;;;;;17.40;6.80;;;11.20;99.90;;;;;;5026075;28;20446;-59
2023/10/02 00:50:19;;;;;;;14.63;7.80;;;11.10;99.90;;;;;;5027275;28;20834;-59
2023/10/02 00:52:50;;;;;;;14.83;6.97;;;11.10;99.90;;;;;;5024311;28;20429;-57
2023/10/02 00:55:19;;;;;;;17.40;8.10;;;11.10;99.90;;;;;;5023803;28;20552;-60
2023/10/02 00:57:45;;;;;;;17.60;7.90;;;11.00;99.90;;;;;;5023098;28;20441;-59
2023/10/02 01:00:17;;;;;;;19.67;8.00;;;11.00;99.90;;;;;;5024551;28;20426;-59
2023/10/02 01:02:51;;;;;;;15.00;7.23;;;10.90;99.90;;;;;;5028271;28;20457;-59
2023/10/02 01:05:21;;;;;;;19.93;7.33;;;10.90;99.90;;;;;;5028928;28;20410;-59
2023/10/02 01:07:53;;;;;;;15.40;7.77;;;10.90;99.90;;;;;;5030228;28;20436;-58
2023/10/02 01:10:19;;;;;;;13.27;6.80;;;10.90;99.90;;;;;;5026842;28;21231;-59
2023/10/02 01:12:49;;;;;;;11.57;6.73;;;10.90;99.90;;;;;;5029053;28;20439;-59
2023/10/02 01:15:19;;;;;;;14.70;7.37;;;10.80;99.90;;;;;;5029683;28;20462;-58
2023/10/02 01:17:49;;;;;;;11.43;6.40;;;10.80;99.90;;;;;;5021075;28;20449;-58
2023/10/02 01:20:21;;;;;;;18.90;7.27;;;10.80;99.90;;;;;;5028979;28;20418;-58
2023/10/02 01:22:52;;;;;;;19.17;8.30;;;10.70;99.90;;;;;;5028107;28;20478;-58
2023/10/02 01:25:23;;;;;;;12.47;6.50;;;10.70;99.90;;;;;;5029591;28;20476;-58
2023/10/02 01:27:51;;;;;;;15.70;7.43;;;10.70;99.90;;;;;;5029060;28;20465;-59
2023/10/02 01:30:20;;;;;;;14.80;7.00;;;10.70;99.90;;;;;;5026678;28;20430;-58
2023/10/02 01:33:06;;;;;;;16.67;7.90;;;10.70;99.90;;;;;;5026055;28;20414;-58
2023/10/02 01:35:34;;;;;;;14.00;6.70;;;10.70;99.90;;;;;;5029182;28;20885;-58
2023/10/02 01:38:00;;;;;;;11.80;6.53;;;10.60;99.90;;;;;;5027458;28;20524;-59
2023/10/02 01:40:34;;;;;;;16.60;7.10;;;10.60;99.90;;;;;;5030174;28;20948;-58
2023/10/02 01:43:12;;;;;;;14.17;7.00;;;10.60;99.90;;;;;;5028344;28;20218;-59
2023/10/02 01:45:42;;;;;;;19.47;7.90;;;10.60;99.90;;;;;;5026165;28;20407;-59
2023/10/02 01:48:15;;;;;;;17.13;7.97;;;10.60;99.90;;;;;;5025747;28;20450;-59
2023/10/02 01:50:45;;;;;;;14.10;7.00;;;10.50;99.90;;;;;;5025258;28;20418;-58
2023/10/02 01:53:29;;;;;;;12.47;7.03;;;10.50;99.90;;;;;;5029688;28;20427;-58
2023/10/02 01:56:00;;;;;;;16.40;6.87;;;10.50;99.90;;;;;;5033699;28;20512;-59
2023/10/02 01:58:29;;;;;;;14.60;7.63;;;10.50;99.90;;;;;;5026076;28;20450;-58
2023/10/02 02:00:57;;;;;;;17.77;7.37;;;10.50;99.90;;;;;;5029169;28;20948;-59
2023/10/02 02:03:28;;;;;;;15.03;8.43;;;10.50;99.90;;;;;;5021543;28;20478;-59
2023/10/02 02:05:54;;;;;;;16.97;8.17;;;10.40;99.90;;;;;;5029001;28;21239;-59
2023/10/02 02:08:22;;;;;;;18.07;7.70;;;10.40;99.90;;;;;;5023344;28;20488;-58
2023/10/02 02:10:54;;;;;;;17.73;7.60;;;10.40;99.90;;;;;;5026240;28;20226;-59
2023/10/02 02:13:20;;;;;;;18.00;8.57;;;10.40;99.90;;;;;;5025643;28;20474;-59
2023/10/02 02:15:51;;;;;;;19.30;9.43;;;10.40;99.90;;;;;;5023594;28;20483;-59
2023/10/02 02:18:19;;;;;;;16.63;8.43;;;10.40;99.90;;;;;;5029644;28;20525;-60
2023/10/02 02:20:57;;;;;;;18.07;8.40;;;10.30;99.90;;;;;;5031766;28;20944;-58
2023/10/02 02:23:26;;;;;;;15.30;6.97;;;10.30;99.90;;;;;;5028290;28;20510;-59
2023/10/02 02:25:52;;;;;;;15.50;7.30;;;10.30;99.90;;;;;;5025202;28;21097;-59
2023/10/02 02:28:17;;;;;;;10.93;6.00;;;10.30;99.90;;;;;;5028665;28;20442;-59
2023/10/02 02:30:43;;;;;;;14.30;6.30;;;10.30;99.90;;;;;;5022565;28;20175;-59
2023/10/02 02:33:10;;;;;;;14.23;6.80;;;10.30;99.90;;;;;;5029336;28;20200;-59
2023/10/02 02:35:35;;;;;;;13.30;6.40;;;10.20;99.90;;;;;;5026045;28;20458;-59
2023/10/02 02:38:02;;;;;;;24.03;7.17;;;10.20;99.90;;;;;;5023245;28;20454;-58
2023/10/02 02:40:31;;;;;;;24.93;8.10;;;10.20;99.90;;;;;;5029606;28;20180;-57
2023/10/02 02:42:56;;;;;;;27.03;10.20;;;10.10;99.90;;;;;;5028745;28;20488;-59
2023/10/02 02:45:28;;;;;;;51.83;10.00;;;10.10;99.90;;;;;;5028801;28;20940;-58
2023/10/02 02:48:15;;;;;;;32.87;8.87;;;10.10;99.90;;;;;;5026326;28;20718;-58
2023/10/02 02:50:42;;;;;;;24.97;7.27;;;10.00;99.90;;;;;;5022499;28;20951;-58
2023/10/02 02:53:21;;;;;;;30.73;8.13;;;10.00;99.90;;;;;;5028923;28;20833;-59
2023/10/02 02:56:22;;;;;;;53.90;8.50;;;10.00;99.90;;;;;;5022097;28;20430;-58
2023/10/02 02:58:50;;;;;;;44.63;9.30;;;10.00;99.90;;;;;;5024582;28;20449;-58
2023/10/02 03:01:21;;;;;;;46.97;10.07;;;9.90;99.90;;;;;;5021780;28;20999;-60
2023/10/02 03:03:55;;;;;;;56.57;11.00;;;9.90;99.90;;;;;;5024862;28;20871;-59
2023/10/02 03:06:22;;;;;;;39.60;8.37;;;9.90;99.90;;;;;;5024748;28;20517;-58
2023/10/02 03:08:52;;;;;;;55.30;10.60;;;9.90;99.90;;;;;;5030928;28;20460;-58
2023/10/02 03:11:22;;;;;;;20.80;8.30;;;9.80;99.90;;;;;;5027888;28;20426;-59
2023/10/02 03:13:49;;;;;;;15.50;8.30;;;9.80;99.90;;;;;;5022298;28;20462;-58
2023/10/02 03:16:28;;;;;;;23.37;8.03;;;9.80;99.90;;;;;;5025227;28;20843;-59
2023/10/02 03:18:54;;;;;;;20.27;8.87;;;9.80;99.90;;;;;;5034297;28;20458;-59
2023/10/02 03:21:24;;;;;;;24.10;9.47;;;9.80;99.90;;;;;;5022572;28;20423;-59
2023/10/02 03:23:54;;;;;;;37.37;10.80;;;9.80;99.90;;;;;;5027174;28;20481;-59
2023/10/02 03:29:04;;;;;;;35.57;8.10;;;9.80;99.90;;;;;;5023384;28;20983;-58
2023/10/02 03:31:36;;;;;;;31.10;7.80;;;9.80;99.90;;;;;;5024240;28;20526;-58
2023/10/02 03:36:48;;;;;;;29.20;7.60;;;9.80;99.90;;;;;;5028493;28;20438;-58
2023/10/02 03:39:23;;;;;;;18.40;7.30;;;9.80;99.90;;;;;;5026231;28;20904;-59
2023/10/02 03:41:50;;;;;;;14.20;6.53;;;9.80;99.90;;;;;;5023098;28;20203;-58
2023/10/02 03:44:16;;;;;;;18.30;6.53;;;9.80;99.90;;;;;;5026613;28;20422;-59
2023/10/02 03:46:42;;;;;;;25.53;7.10;;;9.80;99.90;;;;;;5025194;28;20430;-59
2023/10/02 03:49:08;;;;;;;26.77;8.67;;;9.80;99.90;;;;;;5024925;28;20245;-58
2023/10/02 03:51:40;;;;;;;20.27;7.67;;;9.80;99.90;;;;;;5020446;28;20928;-58
2023/10/02 03:54:22;;;;;;;24.70;8.33;;;9.70;99.90;;;;;;5021910;28;20455;-58
2023/10/02 03:56:49;;;;;;;28.13;7.73;;;9.70;99.90;;;;;;5020029;28;20522;-59
2023/10/02 03:59:25;;;;;;;24.37;7.23;;;9.70;99.90;;;;;;5024095;28;20816;-58
2023/10/02 04:01:51;;;;;;;22.43;7.70;;;9.60;99.90;;;;;;5027026;28;20422;-56
2023/10/02 04:06:43;;;;;;;62.60;9.20;;;9.60;99.90;;;;;;5020379;28;20538;-59
2023/10/02 04:11:42;;;;;;;47.20;10.07;;;9.50;99.90;;;;;;5024725;28;20915;-58
2023/10/02 04:14:18;;;;;;;33.50;6.90;;;9.50;99.90;;;;;;5025011;28;21090;-58
2023/10/02 04:17:09;;;;;;;26.03;7.43;;;9.50;99.90;;;;;;5025525;28;20426;-59
2023/10/02 04:19:36;;;;;;;21.33;6.43;;;9.40;99.90;;;;;;5024796;28;20418;-59
2023/10/02 04:22:06;;;;;;;28.20;8.13;;;9.40;99.90;;;;;;5025152;28;20897;-58
2023/10/02 04:24:51;;;;;;;22.30;7.23;;;9.40;99.90;;;;;;5026530;28;20430;-58
2023/10/02 04:27:30;;;;;;;23.10;6.70;;;9.30;99.90;;;;;;5027308;28;20430;-57
2023/10/02 04:32:32;;;;;;;15.00;6.30;;;9.20;99.90;;;;;;5024817;28;20426;-59
2023/10/02 04:34:58;;;;;;;19.53;6.90;;;9.10;99.90;;;;;;5022997;28;21006;-58
2023/10/02 04:37:24;;;;;;;38.73;8.43;;;9.10;99.90;;;;;;5029000;28;20445;-59
2023/10/02 04:42:21;;;;;;;14.77;6.50;;;9.00;99.90;;;;;;5029678;28;20418;-59
2023/10/02 04:44:49;;;;;;;16.83;6.23;;;9.00;99.90;;;;;;5028845;28;20426;-58
2023/10/02 04:47:19;;;;;;;17.27;6.17;;;9.10;99.90;;;;;;5022787;28;20426;-58
2023/10/02 04:55:23;;;;;;;22.03;6.47;;;9.10;99.90;;;;;;5029805;28;20825;-59
2023/10/02 04:57:54;;;;;;;15.27;5.90;;;9.00;99.90;;;;;;5029685;28;20978;-59
2023/10/02 05:03:24;;;;;;;12.40;6.00;;;9.10;99.90;;;;;;5033825;28;20422;-59
2023/10/02 05:05:53;;;;;;;10.50;5.63;;;9.10;99.90;;;;;;5027110;28;20430;-59
2023/10/02 05:09:12;;;;;;;10.67;6.00;;;9.10;99.90;;;;;;5028461;28;21034;-59
2023/10/02 05:11:45;;;;;;;18.03;6.00;;;9.20;99.90;;;;;;5029881;28;21012;-59
2023/10/02 05:14:14;;;;;;;11.90;6.43;;;9.20;99.90;;;;;;5024658;28;20469;-59
2023/10/02 05:16:42;;;;;;;12.00;5.50;;;9.20;99.90;;;;;;5027234;28;20430;-59
2023/10/02 05:19:09;;;;;;;11.07;6.20;;;9.20;99.90;;;;;;5030472;28;20446;-59
2023/10/02 05:21:50;;;;;;;10.37;6.10;;;9.20;99.90;;;;;;5030155;28;20450;-57
2023/10/02 05:24:18;;;;;;;12.77;6.70;;;9.20;99.90;;;;;;5026111;28;21018;-58
2023/10/02 05:26:44;;;;;;;13.20;6.40;;;9.20;99.90;;;;;;5025705;28;20480;-58
2023/10/02 05:29:14;;;;;;;10.00;6.10;;;9.20;99.90;;;;;;5026674;28;20510;-59
2023/10/02 05:31:43;;;;;;;14.03;7.20;;;9.20;99.90;;;;;;5026575;28;20423;-57
2023/10/02 05:34:21;;;;;;;17.57;7.10;;;9.20;99.90;;;;;;5029194;28;20458;-58
2023/10/02 05:39:31;;;;;;;14.20;6.57;;;9.20;99.90;;;;;;5028275;28;20434;-59
2023/10/02 05:42:05;;;;;;;14.50;7.30;;;9.20;99.90;;;;;;5026950;28;20431;-58
2023/10/02 05:44:37;;;;;;;13.70;7.40;;;9.20;99.90;;;;;;5030666;28;20419;-58
2023/10/02 05:47:07;;;;;;;16.60;6.73;;;9.20;99.90;;;;;;5026611;28;20932;-59
2023/10/02 05:49:49;;;;;;;11.20;6.33;;;9.20;99.90;;;;;;5024834;28;20450;-58
2023/10/02 05:52:19;;;;;;;25.00;6.70;;;9.20;99.90;;;;;;5026363;28;20423;-59
2023/10/02 05:54:55;;;;;;;21.50;7.53;;;9.10;99.90;;;;;;5030100;28;20491;-59
2023/10/02 05:57:21;;;;;;;16.03;7.07;;;9.00;99.90;;;;;;5026439;28;20504;-59
2023/10/02 05:59:54;;;;;;;22.73;6.63;;;9.00;99.90;;;;;;5029650;28;20418;-59
2023/10/02 06:02:22;;;;;;;14.43;7.80;;;9.00;99.90;;;;;;5028223;28;20434;-59
2023/10/02 06:04:49;;;;;;;13.63;6.50;;;9.00;99.90;;;;;;5028723;28;20932;-58
2023/10/02 06:10:07;;;;;;;12.03;6.87;;;9.00;99.90;;;;;;5024259;28;20434;-59
2023/10/02 06:12:33;;;;;;;14.03;8.27;;;9.10;99.90;;;;;;5031593;28;20443;-59
2023/10/02 06:15:08;;;;;;;11.57;6.87;;;9.10;99.90;;;;;;5028986;28;20481;-57
2023/10/02 06:17:35;;;;;;;12.70;7.30;;;9.10;99.90;;;;;;5027981;28;20991;-56
2023/10/02 06:20:00;;;;;;;10.10;5.93;;;9.20;99.90;;;;;;5029534;28;20802;-58
2023/10/02 06:22:26;;;;;;;14.20;7.03;;;9.20;99.90;;;;;;5025263;28;20437;-59
2023/10/02 06:24:52;;;;;;;15.77;7.83;;;9.30;99.90;;;;;;5026990;28;20180;-58
2023/10/02 06:27:22;;;;;;;11.73;6.73;;;9.30;99.90;;;;;;5025479;28;20183;-58
2023/10/02 06:29:49;;;;;;;12.37;6.47;;;9.40;99.90;;;;;;5026445;28;20777;-58
2023/10/02 06:32:22;;;;;;;9.30;6.40;;;9.40;99.90;;;;;;5021716;28;20510;-58
2023/10/02 06:34:50;;;;;;;11.10;6.23;;;9.40;99.90;;;;;;5025051;28;20572;-58
2023/10/02 06:37:21;;;;;;;11.50;6.33;;;9.40;99.90;;;;;;5028930;28;20418;-58
2023/10/02 06:40:04;;;;;;;11.53;6.27;;;9.40;99.90;;;;;;5027010;28;20453;-59
2023/10/02 06:42:31;;;;;;;14.80;6.23;;;9.40;99.90;;;;;;5028508;28;20445;-59
2023/10/02 06:45:01;;;;;;;11.83;6.80;;;9.50;99.90;;;;;;5028549;28;20438;-58
2023/10/02 06:47:31;;;;;;;13.97;7.00;;;9.50;99.90;;;;;;5025449;28;20451;-58
2023/10/02 06:50:21;;;;;;;11.80;6.70;;;9.50;99.90;;;;;;5028681;28;20427;-59
2023/10/02 06:52:49;;;;;;;11.07;6.50;;;9.60;99.90;;;;;;5027119;28;20509;-58
2023/10/02 06:55:17;;;;;;;11.13;6.60;;;9.70;99.90;;;;;;5024112;28;20471;-59
2023/10/02 06:57:49;;;;;;;10.77;5.90;;;9.70;99.90;;;;;;5023312;28;20794;-59
2023/10/02 07:00:19;;;;;;;13.40;6.73;;;9.80;99.90;;;;;;5020788;28;20430;-58
2023/10/02 07:02:56;;;;;;;13.23;6.23;;;9.90;99.90;;;;;;5026053;28;20928;-59
2023/10/02 07:05:27;;;;;;;12.93;6.00;;;9.90;99.90;;;;;;5028089;28;20433;-56
2023/10/02 07:08:01;;;;;;;16.10;7.13;;;10.00;99.90;;;;;;5026803;28;20454;-59
2023/10/02 07:10:42;;;;;;;11.07;6.37;;;10.00;99.90;;;;;;5025798;28;20948;-59
2023/10/02 07:13:20;;;;;;;11.17;6.60;;;10.10;99.90;;;;;;5023296;28;20789;-59
2023/10/02 07:15:47;;;;;;;13.13;6.50;;;10.20;99.90;;;;;;5021990;28;20454;-59
2023/10/02 07:18:14;;;;;;;13.97;7.70;;;10.20;99.90;;;;;;5026362;28;20464;-59
2023/10/02 07:20:43;;;;;;;13.83;7.40;;;10.30;99.90;;;;;;5027312;28;20434;-59
2023/10/02 07:23:19;;;;;;;14.83;7.37;;;10.40;99.90;;;;;;5024734;28;20414;-59
2023/10/02 07:25:51;;;;;;;15.73;6.77;;;10.50;99.90;;;;;;5025881;28;20970;-60
2023/10/02 07:28:20;;;;;;;16.93;8.10;;;10.50;99.90;;;;;;5026516;28;20454;-59
2023/10/02 07:30:46;;;;;;;13.57;7.13;;;10.60;99.90;;;;;;5024599;28;20432;-59
2023/10/02 07:33:12;;;;;;;14.97;7.20;;;10.70;99.90;;;;;;5028410;28;20929;-59
2023/10/02 07:35:38;;;;;;;11.57;6.40;;;10.80;99.90;;;;;;5025662;28;20473;-59
2023/10/02 07:38:08;;;;;;;12.17;7.30;;;10.80;99.90;;;;;;5025710;28;20192;-59
2023/10/02 07:40:48;;;;;;;16.00;7.33;;;10.90;99.90;;;;;;5025033;28;20538;-59
2023/10/02 07:43:18;;;;;;;14.93;8.63;;;11.00;99.90;;;;;;5020814;28;20435;-58
2023/10/02 07:46:02;;;;;;;20.50;7.83;;;11.10;99.90;;;;;;5028486;28;20430;-59
2023/10/02 07:48:33;;;;;;;15.40;8.10;;;11.20;99.90;;;;;;5025047;28;20481;-58
2023/10/02 07:51:03;;;;;;;17.27;8.20;;;11.30;99.90;;;;;;5024788;28;20811;-60
2023/10/02 07:53:44;;;;;;;18.13;8.60;;;11.40;99.90;;;;;;5027198;28;20513;-59
2023/10/02 07:56:14;;;;;;;15.87;7.67;;;11.40;99.90;;;;;;5022742;28;21064;-59
2023/10/02 07:58:41;;;;;;;21.47;8.73;;;11.60;99.90;;;;;;5024931;28;20447;-58
2023/10/02 08:01:16;;;;;;;18.80;8.63;;;11.70;99.90;;;;;;5025084;28;20419;-59
2023/10/02 08:03:49;;;;;;;22.17;9.80;;;11.80;99.90;;;;;;5025875;28;20931;-59
2023/10/02 08:06:33;;;;;;;;;;;;;;;;;;;;;
2023/10/02 08:11:52;;;;;;;18.50;9.00;;;12.20;99.90;;;;;;5025221;28;20413;-60
2023/10/02 08:14:35;;;;;;;21.73;8.87;;;12.30;99.90;;;;;;5028024;28;20520;-59
2023/10/02 08:17:08;;;;;;;19.13;9.10;;;12.40;99.90;;;;;;5031326;28;20434;-59
2023/10/02 08:19:36;;;;;;;21.03;9.90;;;12.60;99.90;;;;;;5017564;28;20509;-58
2023/10/02 08:22:05;;;;;;;20.00;10.10;;;12.70;99.90;;;;;;5023961;28;20418;-59
2023/10/02 08:24:37;;;;;;;16.00;8.40;;;12.80;99.90;;;;;;5025161;28;20970;-59
2023/10/02 08:27:04;;;;;;;16.60;8.87;;;12.90;99.90;;;;;;5026684;28;20924;-59
2023/10/02 08:29:30;;;;;;;16.83;8.80;;;13.10;99.90;;;;;;5024546;28;20449;-59
2023/10/02 08:31:56;;;;;;;18.80;8.50;;;13.20;99.90;;;;;;5028311;28;20461;-59
2023/10/02 08:34:24;;;;;;;18.70;9.40;;;13.30;99.90;;;;;;5027570;28;20210;-59
2023/10/02 08:37:05;;;;;;;23.27;9.80;;;13.50;99.90;;;;;;5025548;28;20200;-59
2023/10/02 08:39:38;;;;;;;20.37;9.30;;;13.60;99.90;;;;;;5022776;28;20431;-59
2023/10/02 08:42:11;;;;;;;22.27;12.13;;;13.80;99.90;;;;;;5023728;28;20979;-59
2023/10/02 08:44:40;;;;;;;21.77;10.23;;;13.90;99.90;;;;;;5018078;28;20427;-58
2023/10/02 08:47:07;;;;;;;21.47;10.43;;;14.10;99.90;;;;;;5021901;28;20429;-59
2023/10/02 08:49:34;;;;;;;25.27;11.13;;;14.20;99.90;;;;;;5028033;28;20422;-59
2023/10/02 08:52:03;;;;;;;22.33;10.90;;;14.30;99.90;;;;;;5024762;28;20600;-58
2023/10/02 08:54:31;;;;;;;24.80;11.60;;;14.50;99.90;;;;;;5027589;28;20453;-59
2023/10/02 08:57:08;;;;;;;21.60;11.20;;;14.60;99.90;;;;;;5021887;28;20812;-59
2023/10/02 08:59:38;;;;;;;23.53;10.80;;;14.80;99.90;;;;;;5025769;28;20770;-59
2023/10/02 09:02:15;;;;;;;25.83;11.70;;;15.00;99.90;;;;;;5025805;28;20792;-59
2023/10/02 09:04:42;;;;;;;25.83;12.33;;;15.20;99.90;;;;;;5022177;28;21228;-58
2023/10/02 09:08:00;;;;;;;23.17;11.30;;;15.40;99.90;;;;;;5029752;28;20502;-60
2023/10/02 09:10:26;;;;;;;26.50;11.90;;;15.60;99.90;;;;;;5021026;28;20926;-59
2023/10/02 09:13:13;;;;;;;25.80;11.00;;;15.80;99.90;;;;;;5022965;28;20431;-59
2023/10/02 09:15:44;;;;;;;25.80;12.00;;;16.00;99.90;;;;;;5023066;28;20187;-59
2023/10/02 09:18:22;;;;;;;31.80;13.10;;;16.20;99.90;;;;;;5027201;28;20438;-59
2023/10/02 09:20:53;;;;;;;27.87;12.70;;;16.40;99.90;;;;;;5022341;28;20422;-59
2023/10/02 09:23:23;;;;;;;28.97;12.27;;;16.60;99.90;;;;;;5027204;28;20428;-58
2023/10/02 09:26:23;;;;;;;29.13;12.40;;;16.80;99.90;;;;;;5027963;28;21105;-59
2023/10/02 09:28:59;;;;;;;31.43;13.23;;;17.00;99.90;;;;;;5023301;28;20485;-59
2023/10/02 09:31:35;;;;;;;30.03;12.23;;;17.10;99.90;;;;;;5028829;28;20828;-59
2023/10/02 09:34:11;;;;;;;27.07;11.93;;;17.30;99.90;;;;;;5023677;28;21151;-60
2023/10/02 09:36:52;;;;;;;36.30;13.30;;;17.50;99.90;;;;;;5027558;28;20418;-59
2023/10/02 09:39:38;;;;;;;30.03;13.37;;;17.60;99.90;;;;;;5027502;28;20447;-59
2023/10/02 09:42:07;;;;;;;40.80;13.03;;;17.80;99.90;;;;;;5028495;28;20440;-59
2023/10/02 09:44:54;;;;;;;29.77;12.90;;;18.00;99.90;;;;;;5028795;28;20456;-59
2023/10/02 09:47:20;;;;;;;34.20;14.67;;;18.20;99.90;;;;;;5025402;28;20505;-59
2023/10/02 09:50:10;;;;;;;29.57;12.73;;;18.40;99.90;;;;;;5026524;28;20446;-59
2023/10/02 09:52:57;;;;;;;30.50;13.80;;;18.60;99.90;;;;;;5026166;28;20427;-57
2023/10/02 09:55:37;;;;;;;31.53;13.77;;;18.80;99.90;;;;;;5027461;28;20500;-59
2023/10/02 09:58:06;;;;;;;33.83;13.10;;;19.00;99.90;;;;;;5029479;28;21003;-59
2023/10/02 10:00:36;;;;;;;33.43;15.20;;;19.10;99.90;;;;;;5024445;28;20438;-60
2023/10/02 10:03:23;;;;;;;36.80;16.03;;;19.20;99.90;;;;;;5029173;28;20434;-59
2023/10/02 10:06:16;;;;;;;36.00;16.47;;;19.40;99.90;;;;;;5024989;28;20497;-60
2023/10/02 10:11:40;;;;;;;30.57;13.63;;;19.50;99.90;;;;;;5028703;28;20417;-59
2023/10/02 10:14:37;;;;;;;33.80;14.30;;;19.60;99.90;;;;;;5029286;28;20558;-59
2023/10/02 10:17:15;;;;;;;37.80;15.30;;;19.80;99.90;;;;;;5025134;28;20470;-60
2023/10/02 10:20:18;;;;;;;37.23;14.40;;;19.90;99.90;;;;;;5023289;28;20431;-59
2023/10/02 10:22:50;;;;;;;36.10;14.30;;;20.10;99.90;;;;;;5026943;28;20793;-60
2023/10/02 10:28:06;;;;;;;39.50;15.30;;;20.50;99.90;;;;;;5024514;28;20880;-59
2023/10/02 10:30:43;;;;;;;38.07;15.27;;;20.60;99.90;;;;;;5024878;28;21128;-59
2023/10/02 10:35:37;;;;;;;39.20;15.70;;;21.00;99.90;;;;;;5022941;28;21035;-58
2023/10/02 10:38:26;;;;;;;41.07;16.53;;;21.10;97.90;;;;;;5021920;28;20545;-59
2023/10/02 10:40:55;;;;;;;37.00;16.10;;;21.20;96.70;;;;;;5028562;28;20825;-59
2023/10/02 10:43:43;;;;;;;36.40;17.00;;;21.40;96.20;;;;;;5024811;28;20418;-59
2023/10/02 10:46:27;;;;;;;38.20;17.27;;;21.50;94.60;;;;;;5026277;28;20437;-58
2023/10/02 10:51:57;;;;;;;43.70;17.07;;;21.90;90.00;;;;;;5025261;28;20462;-60
2023/10/02 10:54:25;;;;;;;42.37;16.80;;;22.10;90.10;;;;;;5021282;28;20457;-60
2023/10/02 10:59:45;;;;;;;38.90;16.87;;;22.40;80.00;;;;;;5024410;28;20435;-59
2023/10/02 11:02:16;;;;;;;40.70;17.30;;;22.50;79.50;;;;;;5022865;28;20818;-59
2023/10/02 11:04:49;;;;;;;37.90;16.83;;;22.60;78.70;;;;;;5027539;28;20418;-59
2023/10/02 11:07:25;;;;;;;44.90;19.20;;;22.80;76.90;;;;;;5026190;28;20423;-60
2023/10/02 11:10:19;;;;;;;46.40;19.47;;;22.90;74.30;;;;;;5023071;28;20430;-59
2023/10/02 11:12:59;;;;;;;45.97;19.10;;;23.20;73.80;;;;;;5022033;28;20525;-59
2023/10/02 11:15:54;;;;;;;49.33;18.57;;;23.50;71.60;;;;;;5027245;28;20470;-60
2023/10/02 11:18:23;;;;;;;41.20;18.50;;;23.90;67.20;;;;;;5023903;28;20455;-59
2023/10/02 11:20:57;;;;;;;43.90;17.33;;;24.30;64.20;;;;;;5018741;28;20437;-60
2023/10/02 11:23:45;;;;;;;43.70;19.53;;;24.60;62.70;;;;;;5022021;28;20433;-60
2023/10/02 11:26:12;;;;;;;45.17;19.50;;;25.00;61.60;;;;;;5023150;28;20496;-60
2023/10/02 11:28:38;;;;;;;46.23;20.30;;;25.40;60.70;;;;;;5023181;28;20463;-58
2023/10/02 11:31:45;;;;;;;42.67;18.20;;;25.70;60.10;;;;;;5028006;28;20422;-60
2023/10/02 11:34:11;;;;;;;41.43;19.37;;;25.90;59.30;;;;;;5021574;28;20984;-60
2023/10/02 11:36:39;;;;;;;46.17;18.73;;;26.00;56.50;;;;;;5027729;28;20420;-59
2023/10/02 11:39:27;;;;;;;43.03;19.30;;;26.00;56.70;;;;;;5024356;28;20693;-60
2023/10/02 11:41:52;;;;;;;40.30;19.30;;;26.00;57.30;;;;;;5026456;28;20418;-60
2023/10/02 11:44:18;;;;;;;39.60;19.10;;;26.10;56.40;;;;;;5027766;28;20433;-60
2023/10/02 11:46:43;;;;;;;44.67;20.80;;;26.20;57.50;;;;;;5019238;28;20168;-58
2023/10/02 11:49:15;;;;;;;42.87;19.97;;;26.30;56.80;;;;;;5024555;28;20225;-60
2023/10/02 11:51:43;;;;;;;45.70;19.77;;;26.50;57.30;;;;;;5025467;28;20653;-60
2023/10/02 11:54:11;;;;;;;43.63;19.73;;;26.60;56.80;;;;;;5022159;28;20580;-60
2023/10/02 11:56:38;;;;;;;41.00;19.67;;;26.70;56.40;;;;;;5025624;28;20838;-59
2023/10/02 11:59:04;;;;;;;43.03;20.37;;;26.80;56.30;;;;;;5023415;28;20335;-60
2023/10/02 12:01:30;;;;;;;48.97;19.50;;;26.90;56.20;;;;;;5022705;28;20194;-60
2023/10/02 12:03:59;;;;;;;42.33;18.57;;;27.00;55.00;;;;;;5025861;28;20203;-60
2023/10/02 12:06:27;;;;;;;43.38;20.98;;;27.10;55.10;;;;;;5025368;28;20195;-60
2023/10/02 12:08:58;;;;;;;44.97;19.90;;;27.20;55.10;;;;;;5026096;28;20231;-60
2023/10/02 12:11:24;;;;;;;40.03;19.13;;;27.30;54.00;;;;;;5026473;28;20650;-60
2023/10/02 12:13:51;;;;;;;46.70;19.70;;;27.30;53.40;;;;;;5023420;28;20237;-60
2023/10/02 12:16:21;;;;;;;38.97;19.37;;;27.30;54.10;;;;;;5025808;28;20225;-60
2023/10/02 12:18:49;;;;;;;43.23;19.87;;;27.30;54.60;;;;;;5023353;28;20200;-59
2023/10/02 12:21:16;;;;;;;38.37;17.37;;;27.40;53.60;;;;;;5021793;28;20262;-60
2023/10/02 12:23:43;;;;;;;39.50;19.47;;;27.50;54.20;;;;;;5022063;28;20604;-61
2023/10/02 12:26:20;;;;;;;39.77;17.97;;;27.60;53.60;;;;;;5026017;28;20167;-60
2023/10/02 12:28:49;;;;;;;41.30;19.63;;;27.70;54.10;;;;;;5021382;28;20187;-58
2023/10/02 12:31:19;;;;;;;43.67;19.27;;;27.80;53.00;;;;;;5026390;28;20660;-60
2023/10/02 12:33:46;;;;;;;39.97;18.57;;;27.90;53.30;;;;;;5025742;28;20179;-60
2023/10/02 12:36:20;;;;;;;41.60;19.23;;;28.00;53.20;;;;;;5025585;28;20175;-59
2023/10/02 12:38:46;;;;;;;41.50;18.97;;;28.00;53.20;;;;;;5025557;28;20195;-58
2023/10/02 12:41:19;;;;;;;38.67;17.83;;;28.10;53.20;;;;;;5024653;28;20222;-60
2023/10/02 12:43:47;;;;;;;39.63;18.53;;;28.20;53.10;;;;;;5024705;28;20175;-60
2023/10/02 12:46:16;;;;;;;44.33;19.37;;;28.20;52.10;;;;;;5025282;28;20326;-60
2023/10/02 12:48:48;;;;;;;36.83;18.60;;;28.20;52.50;;;;;;5025261;28;20698;-59
2023/10/02 12:51:18;;;;;;;41.43;19.93;;;28.20;52.50;;;;;;5026553;28;20167;-59
2023/10/02 12:53:45;;;;;;;42.87;19.77;;;28.20;52.40;;;;;;5022458;28;20184;-59
2023/10/02 12:56:21;;;;;;;41.00;20.45;;;28.30;52.30;;;;;;5026604;28;20180;-59
2023/10/02 12:58:51;;;;;;;44.70;21.40;;;28.40;51.90;;;;;;5029716;28;20227;-61
2023/10/02 13:01:18;;;;;;;42.50;20.42;;;28.50;52.00;;;;;;5024396;28;20242;-60
2023/10/02 13:03:44;;;;;;;45.83;21.90;;;28.60;51.30;;;;;;5028787;28;20187;-60
2023/10/02 13:06:12;;;;;;;41.42;19.42;;;28.60;50.40;;;;;;5030017;28;20168;-60
2023/10/02 13:08:45;;;;;;;51.20;21.33;;;28.60;51.00;;;;;;5029378;28;20200;-58
2023/10/02 13:11:12;;;;;;;44.00;20.55;;;28.60;50.20;;;;;;5025441;28;20591;-59
2023/10/02 13:13:42;;;;;;;43.88;19.95;;;28.60;50.20;;;;;;5027272;28;20167;-58
2023/10/02 13:16:08;;;;;;;43.10;21.50;;;28.70;50.50;;;;;;5029996;28;20221;-60
2023/10/02 13:18:35;;;;;;;42.38;20.95;;;28.70;50.10;;;;;;5026912;28;20195;-61
2023/10/02 13:21:01;;;;;;;46.35;21.90;;;28.80;50.40;;;;;;5029751;28;20171;-60
2023/10/02 13:23:27;;;;;;;39.42;19.42;;;28.80;49.00;;;;;;5029709;28;20652;-60
2023/10/02 13:25:54;;;;;;;40.40;18.88;;;28.70;48.70;;;;;;5025347;28;20180;-60
2023/10/02 13:28:20;;;;;;;46.53;20.88;;;28.70;48.50;;;;;;5028862;28;20254;-60
2023/10/02 13:30:45;;;;;;;45.85;19.77;;;28.70;48.60;;;;;;5030026;28;20674;-60
2023/10/02 13:33:11;;;;;;;44.33;19.52;;;28.70;48.20;;;;;;5031506;28;20486;-59
2023/10/02 13:35:38;;;;;;;41.93;19.30;;;28.70;47.70;;;;;;5029031;28;20210;-59
2023/10/02 13:38:04;;;;;;;41.85;18.90;;;28.80;48.70;;;;;;5029781;28;20253;-60
2023/10/02 13:40:36;;;;;;;44.90;21.48;;;28.80;48.00;;;;;;5027537;28;20195;-60
2023/10/02 13:43:03;;;;;;;46.17;22.40;;;28.80;47.20;;;;;;5029797;28;20175;-60
2023/10/02 13:45:29;;;;;;;44.08;20.95;;;28.70;47.40;;;;;;5023469;28;20275;-61
2023/10/02 13:47:56;;;;;;;45.63;20.08;;;28.70;47.60;;;;;;5022206;28;20548;-61
2023/10/02 13:50:22;;;;;;;42.65;21.63;;;28.80;47.80;;;;;;5029963;28;20192;-60